sensor_id;sensor_type;location;lat;lon;timestamp;noise_LAeq;noise_LA_min;noise_LA_max;noise_LA01;noise_LA95
69619;Laerm;57653;51.434;5.984;2023-09-19T00:00:01;35.60;33.84;37.13;;
69619;Laerm;57653;51.434;5.984;2023-09-19T00:00:12;35.95;33.61;46.98;;
69619;Laerm;57653;51.434;5.984;2023-09-19T00:00:23;36.86;33.54;40.07;;
69619;Laerm;57653;51.434;5.984;2023-09-19T00:00:35;34.98;33.13;37.15;;
69619;Laerm;57653;51.434;5.984;2023-09-19T00:00:46;37.04;35.24;40.66;;
69619;Laerm;57653;51.434;5.984;2023-09-19T00:00:59;35.77;33.06;40.24;;
69619;Laerm;57653;51.434;5.984;2023-09-19T00:01:10;34.25;32.34;36.91;;
69619;Laerm;57653;51.434;5.984;2023-09-19T00:01:22;36.41;34.21;38.68;;
69619;Laerm;57653;51.434;5.984;2023-09-19T00:01:33;34.00;32.64;35.75;;
69619;Laerm;57653;51.434;5.984;2023-09-19T00:01:43;33.60;32.49;34.62;;
69619;Laerm;57653;51.434;5.984;2023-09-19T00:01:55;34.90;32.37;38.94;;
69619;Laerm;57653;51.434;5.984;2023-09-19T00:02:07;35.52;32.41;39.16;;
69619;Laerm;57653;51.434;5.984;2023-09-19T00:02:18;33.73;32.25;35.67;;
69619;Laerm;57653;51.434;5.984;2023-09-19T00:02:29;33.36;31.81;39.05;;
69619;Laerm;57653;51.434;5.984;2023-09-19T00:02:39;33.56;32.47;35.14;;
69619;Laerm;57653;51.434;5.984;2023-09-19T00:02:56;33.96;32.42;35.07;;
69619;Laerm;57653;51.434;5.984;2023-09-19T00:03:09;34.14;32.44;36.32;;
69619;Laerm;57653;51.434;5.984;2023-09-19T00:03:20;35.61;33.68;37.81;;
69619;Laerm;57653;51.434;5.984;2023-09-19T00:03:30;38.67;34.62;43.89;;
69619;Laerm;57653;51.434;5.984;2023-09-19T00:03:41;45.11;39.20;49.37;;
69619;Laerm;57653;51.434;5.984;2023-09-19T00:03:53;60.95;46.99;66.27;;
69619;Laerm;57653;51.434;5.984;2023-09-19T00:04:03;64.66;61.40;67.83;;
69619;Laerm;57653;51.434;5.984;2023-09-19T00:04:19;57.22;33.85;64.88;;
69619;Laerm;57653;51.434;5.984;2023-09-19T00:04:33;35.04;32.63;36.73;;
69619;Laerm;57653;51.434;5.984;2023-09-19T00:04:43;33.94;32.48;35.07;;
69619;Laerm;57653;51.434;5.984;2023-09-19T00:04:54;35.68;33.28;38.21;;
69619;Laerm;57653;51.434;5.984;2023-09-19T00:05:05;36.14;34.21;38.78;;
69619;Laerm;57653;51.434;5.984;2023-09-19T00:05:15;36.40;32.84;38.41;;
69619;Laerm;57653;51.434;5.984;2023-09-19T00:05:26;34.57;32.92;37.76;;
69619;Laerm;57653;51.434;5.984;2023-09-19T00:05:38;34.33;31.96;36.96;;
69619;Laerm;57653;51.434;5.984;2023-09-19T00:05:48;35.53;33.65;36.84;;
69619;Laerm;57653;51.434;5.984;2023-09-19T00:06:00;35.29;33.79;37.01;;
69619;Laerm;57653;51.434;5.984;2023-09-19T00:06:11;38.58;36.51;40.69;;
69619;Laerm;57653;51.434;5.984;2023-09-19T00:06:27;35.26;33.12;38.75;;
69619;Laerm;57653;51.434;5.984;2023-09-19T00:06:41;35.61;32.75;38.61;;
69619;Laerm;57653;51.434;5.984;2023-09-19T00:06:52;34.36;32.21;36.27;;
69619;Laerm;57653;51.434;5.984;2023-09-19T00:07:04;34.21;32.20;36.51;;
69619;Laerm;57653;51.434;5.984;2023-09-19T00:07:14;33.34;32.13;34.38;;
69619;Laerm;57653;51.434;5.984;2023-09-19T00:07:26;34.58;32.80;38.64;;
69619;Laerm;57653;51.434;5.984;2023-09-19T00:07:36;39.58;34.63;46.45;;
69619;Laerm;57653;51.434;5.984;2023-09-19T00:07:46;34.23;32.03;37.12;;
69619;Laerm;57653;51.434;5.984;2023-09-19T00:07:57;34.17;32.67;35.88;;
69619;Laerm;57653;51.434;5.984;2023-09-19T00:08:10;33.17;32.03;34.56;;
69619;Laerm;57653;51.434;5.984;2023-09-19T00:08:23;34.79;32.50;36.53;;
69619;Laerm;57653;51.434;5.984;2023-09-19T00:08:34;38.00;34.30;44.44;;
69619;Laerm;57653;51.434;5.984;2023-09-19T00:08:44;35.61;33.76;37.81;;
69619;Laerm;57653;51.434;5.984;2023-09-19T00:08:54;34.16;32.46;36.60;;
69619;Laerm;57653;51.434;5.984;2023-09-19T00:09:05;33.60;32.40;34.84;;
69619;Laerm;57653;51.434;5.984;2023-09-19T00:09:15;34.55;32.91;35.87;;
69619;Laerm;57653;51.434;5.984;2023-09-19T00:09:25;37.39;33.58;45.69;;
69619;Laerm;57653;51.434;5.984;2023-09-19T00:09:38;34.81;33.10;37.26;;
69619;Laerm;57653;51.434;5.984;2023-09-19T00:09:49;33.77;32.01;37.30;;
69619;Laerm;57653;51.434;5.984;2023-09-19T00:09:59;34.86;33.04;36.41;;
69619;Laerm;57653;51.434;5.984;2023-09-19T00:10:10;34.79;33.30;36.96;;
69619;Laerm;57653;51.434;5.984;2023-09-19T00:10:21;37.68;35.21;40.14;;
69619;Laerm;57653;51.434;5.984;2023-09-19T00:10:34;37.86;34.34;43.12;;
69619;Laerm;57653;51.434;5.984;2023-09-19T00:10:45;39.16;35.79;43.42;;
69619;Laerm;57653;51.434;5.984;2023-09-19T00:10:55;41.54;36.31;48.23;;
69619;Laerm;57653;51.434;5.984;2023-09-19T00:11:05;59.28;45.11;66.28;;
69619;Laerm;57653;51.434;5.984;2023-09-19T00:11:15;62.26;59.52;64.61;;
69619;Laerm;57653;51.434;5.984;2023-09-19T00:11:26;61.52;57.61;64.00;;
69619;Laerm;57653;51.434;5.984;2023-09-19T00:11:37;50.50;34.44;59.37;;
69619;Laerm;57653;51.434;5.984;2023-09-19T00:11:49;35.33;32.85;36.95;;
69619;Laerm;57653;51.434;5.984;2023-09-19T00:11:59;35.97;33.35;39.29;;
69619;Laerm;57653;51.434;5.984;2023-09-19T00:12:10;35.99;33.37;37.81;;
69619;Laerm;57653;51.434;5.984;2023-09-19T00:12:20;37.01;32.96;39.32;;
69619;Laerm;57653;51.434;5.984;2023-09-19T00:12:30;34.85;32.46;37.13;;
69619;Laerm;57653;51.434;5.984;2023-09-19T00:12:44;34.67;32.71;36.93;;
69619;Laerm;57653;51.434;5.984;2023-09-19T00:12:54;34.45;32.68;35.81;;
69619;Laerm;57653;51.434;5.984;2023-09-19T00:13:05;34.32;32.73;35.89;;
69619;Laerm;57653;51.434;5.984;2023-09-19T00:13:16;34.74;32.97;36.83;;
69619;Laerm;57653;51.434;5.984;2023-09-19T00:13:28;33.52;31.99;34.72;;
69619;Laerm;57653;51.434;5.984;2023-09-19T00:13:40;35.40;32.59;37.45;;
69619;Laerm;57653;51.434;5.984;2023-09-19T00:13:51;33.80;32.37;37.40;;
69619;Laerm;57653;51.434;5.984;2023-09-19T00:14:01;33.07;31.78;34.34;;
69619;Laerm;57653;51.434;5.984;2023-09-19T00:14:11;33.75;32.49;36.31;;
69619;Laerm;57653;51.434;5.984;2023-09-19T00:14:24;33.45;32.18;34.47;;
69619;Laerm;57653;51.434;5.984;2023-09-19T00:14:35;33.97;32.51;36.06;;
69619;Laerm;57653;51.434;5.984;2023-09-19T00:14:45;35.83;33.27;39.14;;
69619;Laerm;57653;51.434;5.984;2023-09-19T00:14:56;34.91;33.15;37.48;;
69619;Laerm;57653;51.434;5.984;2023-09-19T00:15:07;35.32;33.24;38.74;;
69619;Laerm;57653;51.434;5.984;2023-09-19T00:15:17;34.01;33.04;36.14;;
69619;Laerm;57653;51.434;5.984;2023-09-19T00:15:27;33.30;31.97;34.78;;
69619;Laerm;57653;51.434;5.984;2023-09-19T00:15:41;33.46;31.89;35.27;;
69619;Laerm;57653;51.434;5.984;2023-09-19T00:15:52;34.13;32.63;35.91;;
69619;Laerm;57653;51.434;5.984;2023-09-19T00:16:08;34.28;32.55;36.41;;
69619;Laerm;57653;51.434;5.984;2023-09-19T00:16:18;34.45;32.75;36.81;;
69619;Laerm;57653;51.434;5.984;2023-09-19T00:16:29;34.62;32.41;37.23;;
69619;Laerm;57653;51.434;5.984;2023-09-19T00:16:39;33.63;32.49;34.79;;
69619;Laerm;57653;51.434;5.984;2023-09-19T00:16:51;32.93;31.93;34.14;;
69619;Laerm;57653;51.434;5.984;2023-09-19T00:17:01;34.46;32.57;36.29;;
69619;Laerm;57653;51.434;5.984;2023-09-19T00:17:18;34.40;32.28;38.49;;
69619;Laerm;57653;51.434;5.984;2023-09-19T00:17:28;33.51;32.33;34.94;;
69619;Laerm;57653;51.434;5.984;2023-09-19T00:17:41;34.37;31.97;36.16;;
69619;Laerm;57653;51.434;5.984;2023-09-19T00:17:53;34.45;32.36;37.49;;
69619;Laerm;57653;51.434;5.984;2023-09-19T00:18:04;36.71;32.94;41.05;;
69619;Laerm;57653;51.434;5.984;2023-09-19T00:18:19;36.74;33.64;39.34;;
69619;Laerm;57653;51.434;5.984;2023-09-19T00:18:34;34.24;32.80;38.47;;
69619;Laerm;57653;51.434;5.984;2023-09-19T00:18:45;33.14;31.74;34.39;;
69619;Laerm;57653;51.434;5.984;2023-09-19T00:18:55;33.50;32.29;36.86;;
69619;Laerm;57653;51.434;5.984;2023-09-19T00:19:05;34.10;32.97;35.15;;
69619;Laerm;57653;51.434;5.984;2023-09-19T00:19:18;33.48;32.24;34.65;;
69619;Laerm;57653;51.434;5.984;2023-09-19T00:19:29;33.94;32.62;35.22;;
69619;Laerm;57653;51.434;5.984;2023-09-19T00:19:39;34.93;33.17;37.18;;
69619;Laerm;57653;51.434;5.984;2023-09-19T00:19:52;34.46;32.69;36.26;;
69619;Laerm;57653;51.434;5.984;2023-09-19T00:20:03;34.79;32.84;36.47;;
69619;Laerm;57653;51.434;5.984;2023-09-19T00:20:21;36.76;32.88;40.02;;
69619;Laerm;57653;51.434;5.984;2023-09-19T00:20:35;42.54;37.58;48.73;;
69619;Laerm;57653;51.434;5.984;2023-09-19T00:20:46;60.15;46.25;66.43;;
69619;Laerm;57653;51.434;5.984;2023-09-19T00:21:01;66.31;62.95;69.18;;
69619;Laerm;57653;51.434;5.984;2023-09-19T00:21:11;59.13;40.14;64.87;;
69619;Laerm;57653;51.434;5.984;2023-09-19T00:21:22;35.37;32.67;42.23;;
69619;Laerm;57653;51.434;5.984;2023-09-19T00:21:32;33.35;31.76;38.65;;
69619;Laerm;57653;51.434;5.984;2023-09-19T00:21:43;32.93;31.62;34.31;;
69619;Laerm;57653;51.434;5.984;2023-09-19T00:21:53;33.73;31.87;35.29;;
69619;Laerm;57653;51.434;5.984;2023-09-19T00:22:03;33.78;32.28;35.20;;
69619;Laerm;57653;51.434;5.984;2023-09-19T00:22:14;38.09;33.76;40.68;;
69619;Laerm;57653;51.434;5.984;2023-09-19T00:22:26;36.25;33.99;39.13;;
69619;Laerm;57653;51.434;5.984;2023-09-19T00:22:38;37.79;33.29;41.20;;
69619;Laerm;57653;51.434;5.984;2023-09-19T00:22:49;37.12;32.48;41.62;;
69619;Laerm;57653;51.434;5.984;2023-09-19T00:23:03;33.58;31.74;35.73;;
69619;Laerm;57653;51.434;5.984;2023-09-19T00:23:14;34.02;32.88;35.13;;
69619;Laerm;57653;51.434;5.984;2023-09-19T00:23:25;33.40;32.17;40.63;;
69619;Laerm;57653;51.434;5.984;2023-09-19T00:23:35;33.00;31.87;34.26;;
69619;Laerm;57653;51.434;5.984;2023-09-19T00:23:45;33.30;32.31;34.42;;
69619;Laerm;57653;51.434;5.984;2023-09-19T00:23:55;33.64;32.14;35.33;;
69619;Laerm;57653;51.434;5.984;2023-09-19T00:24:06;34.93;33.19;38.24;;
69619;Laerm;57653;51.434;5.984;2023-09-19T00:24:16;40.39;37.01;43.92;;
69619;Laerm;57653;51.434;5.984;2023-09-19T00:24:27;38.37;35.09;40.35;;
69619;Laerm;57653;51.434;5.984;2023-09-19T00:24:40;37.12;34.23;49.23;;
69619;Laerm;57653;51.434;5.984;2023-09-19T00:24:51;35.56;33.64;43.85;;
69619;Laerm;57653;51.434;5.984;2023-09-19T00:25:01;34.02;32.68;35.43;;
69619;Laerm;57653;51.434;5.984;2023-09-19T00:25:12;33.02;31.48;34.51;;
69619;Laerm;57653;51.434;5.984;2023-09-19T00:25:22;34.56;32.88;36.23;;
69619;Laerm;57653;51.434;5.984;2023-09-19T00:25:32;36.74;34.61;38.43;;
69619;Laerm;57653;51.434;5.984;2023-09-19T00:25:45;36.24;33.72;39.25;;
69619;Laerm;57653;51.434;5.984;2023-09-19T00:25:58;35.02;32.60;37.01;;
69619;Laerm;57653;51.434;5.984;2023-09-19T00:26:08;34.12;32.19;37.35;;
69619;Laerm;57653;51.434;5.984;2023-09-19T00:26:18;33.45;31.93;36.81;;
69619;Laerm;57653;51.434;5.984;2023-09-19T00:26:31;33.68;31.60;36.61;;
69619;Laerm;57653;51.434;5.984;2023-09-19T00:26:42;33.40;31.28;37.16;;
69619;Laerm;57653;51.434;5.984;2023-09-19T00:26:53;33.76;31.75;36.33;;
69619;Laerm;57653;51.434;5.984;2023-09-19T00:27:05;35.45;33.17;42.97;;
69619;Laerm;57653;51.434;5.984;2023-09-19T00:27:15;35.07;33.19;36.91;;
69619;Laerm;57653;51.434;5.984;2023-09-19T00:27:26;34.93;33.27;37.12;;
69619;Laerm;57653;51.434;5.984;2023-09-19T00:27:36;33.54;32.43;34.73;;
69619;Laerm;57653;51.434;5.984;2023-09-19T00:27:51;34.24;32.78;35.71;;
69619;Laerm;57653;51.434;5.984;2023-09-19T00:28:02;32.97;31.92;35.12;;
69619;Laerm;57653;51.434;5.984;2023-09-19T00:28:13;36.33;32.43;42.03;;
69619;Laerm;57653;51.434;5.984;2023-09-19T00:28:26;35.61;32.61;46.49;;
69619;Laerm;57653;51.434;5.984;2023-09-19T00:28:37;34.96;32.94;38.71;;
69619;Laerm;57653;51.434;5.984;2023-09-19T00:28:47;36.49;33.09;39.66;;
69619;Laerm;57653;51.434;5.984;2023-09-19T00:28:57;33.88;32.42;36.47;;
69619;Laerm;57653;51.434;5.984;2023-09-19T00:29:14;34.46;32.65;36.65;;
69619;Laerm;57653;51.434;5.984;2023-09-19T00:29:26;33.32;32.12;34.78;;
69619;Laerm;57653;51.434;5.984;2023-09-19T00:29:39;35.11;32.37;38.42;;
69619;Laerm;57653;51.434;5.984;2023-09-19T00:29:49;36.32;32.76;39.21;;
69619;Laerm;57653;51.434;5.984;2023-09-19T00:29:59;34.07;32.43;35.78;;
69619;Laerm;57653;51.434;5.984;2023-09-19T00:30:11;34.40;32.90;35.77;;
69619;Laerm;57653;51.434;5.984;2023-09-19T00:30:25;35.78;32.69;38.81;;
69619;Laerm;57653;51.434;5.984;2023-09-19T00:30:36;34.12;32.61;36.30;;
69619;Laerm;57653;51.434;5.984;2023-09-19T00:30:48;34.04;32.32;36.57;;
69619;Laerm;57653;51.434;5.984;2023-09-19T00:31:01;35.92;32.67;39.39;;
69619;Laerm;57653;51.434;5.984;2023-09-19T00:31:12;35.22;32.73;44.67;;
69619;Laerm;57653;51.434;5.984;2023-09-19T00:31:22;35.78;32.83;39.25;;
69619;Laerm;57653;51.434;5.984;2023-09-19T00:31:35;33.87;32.16;36.25;;
69619;Laerm;57653;51.434;5.984;2023-09-19T00:31:47;34.45;32.22;36.20;;
69619;Laerm;57653;51.434;5.984;2023-09-19T00:31:58;34.99;33.40;36.44;;
69619;Laerm;57653;51.434;5.984;2023-09-19T00:32:09;36.31;34.30;41.28;;
69619;Laerm;57653;51.434;5.984;2023-09-19T00:32:19;34.56;32.62;38.20;;
69619;Laerm;57653;51.434;5.984;2023-09-19T00:32:29;35.22;33.34;44.89;;
69619;Laerm;57653;51.434;5.984;2023-09-19T00:32:42;34.57;32.48;41.70;;
69619;Laerm;57653;51.434;5.984;2023-09-19T00:32:52;34.64;33.14;42.64;;
69619;Laerm;57653;51.434;5.984;2023-09-19T00:33:03;33.09;31.79;34.48;;
69619;Laerm;57653;51.434;5.984;2023-09-19T00:33:16;33.77;32.40;35.27;;
69619;Laerm;57653;51.434;5.984;2023-09-19T00:33:26;33.13;31.86;34.25;;
69619;Laerm;57653;51.434;5.984;2023-09-19T00:33:37;32.57;31.44;33.94;;
69619;Laerm;57653;51.434;5.984;2023-09-19T00:33:47;32.81;31.42;34.00;;
69619;Laerm;57653;51.434;5.984;2023-09-19T00:33:58;32.82;31.56;34.38;;
69619;Laerm;57653;51.434;5.984;2023-09-19T00:34:10;32.95;31.17;34.45;;
69619;Laerm;57653;51.434;5.984;2023-09-19T00:34:20;32.61;31.63;33.75;;
69619;Laerm;57653;51.434;5.984;2023-09-19T00:34:31;33.98;31.77;37.38;;
69619;Laerm;57653;51.434;5.984;2023-09-19T00:34:44;34.29;31.61;37.79;;
69619;Laerm;57653;51.434;5.984;2023-09-19T00:34:54;32.99;31.46;38.14;;
69619;Laerm;57653;51.434;5.984;2023-09-19T00:35:06;34.26;31.75;41.45;;
69619;Laerm;57653;51.434;5.984;2023-09-19T00:35:18;33.26;31.88;35.23;;
69619;Laerm;57653;51.434;5.984;2023-09-19T00:35:29;33.80;32.39;35.32;;
69619;Laerm;57653;51.434;5.984;2023-09-19T00:35:39;33.50;32.19;35.70;;
69619;Laerm;57653;51.434;5.984;2023-09-19T00:35:56;32.87;31.58;39.12;;
69619;Laerm;57653;51.434;5.984;2023-09-19T00:36:07;33.11;31.90;34.24;;
69619;Laerm;57653;51.434;5.984;2023-09-19T00:36:17;33.85;32.11;35.10;;
69619;Laerm;57653;51.434;5.984;2023-09-19T00:36:28;33.92;32.21;36.23;;
69619;Laerm;57653;51.434;5.984;2023-09-19T00:36:39;33.98;32.65;35.63;;
69619;Laerm;57653;51.434;5.984;2023-09-19T00:36:50;34.56;33.47;35.52;;
69619;Laerm;57653;51.434;5.984;2023-09-19T00:37:03;35.07;33.60;36.44;;
69619;Laerm;57653;51.434;5.984;2023-09-19T00:37:13;35.93;34.43;37.53;;
69619;Laerm;57653;51.434;5.984;2023-09-19T00:37:24;34.04;32.53;35.72;;
69619;Laerm;57653;51.434;5.984;2023-09-19T00:37:34;33.85;32.59;35.09;;
69619;Laerm;57653;51.434;5.984;2023-09-19T00:37:45;34.71;32.76;37.18;;
69619;Laerm;57653;51.434;5.984;2023-09-19T00:37:56;35.31;33.15;37.16;;
69619;Laerm;57653;51.434;5.984;2023-09-19T00:38:06;33.80;32.69;35.86;;
69619;Laerm;57653;51.434;5.984;2023-09-19T00:38:17;34.30;32.90;35.77;;
69619;Laerm;57653;51.434;5.984;2023-09-19T00:38:29;35.39;33.40;37.33;;
69619;Laerm;57653;51.434;5.984;2023-09-19T00:38:40;33.85;32.30;35.70;;
69619;Laerm;57653;51.434;5.984;2023-09-19T00:38:50;33.92;32.43;35.14;;
69619;Laerm;57653;51.434;5.984;2023-09-19T00:39:00;33.51;31.75;34.72;;
69619;Laerm;57653;51.434;5.984;2023-09-19T00:39:10;37.14;32.65;39.38;;
69619;Laerm;57653;51.434;5.984;2023-09-19T00:39:21;34.42;32.22;36.68;;
69619;Laerm;57653;51.434;5.984;2023-09-19T00:39:31;33.33;31.71;34.70;;
69619;Laerm;57653;51.434;5.984;2023-09-19T00:39:42;34.42;32.86;36.01;;
69619;Laerm;57653;51.434;5.984;2023-09-19T00:39:52;33.99;32.52;35.29;;
69619;Laerm;57653;51.434;5.984;2023-09-19T00:40:06;33.84;32.31;36.58;;
69619;Laerm;57653;51.434;5.984;2023-09-19T00:40:17;34.94;32.65;39.65;;
69619;Laerm;57653;51.434;5.984;2023-09-19T00:40:27;34.82;33.01;39.05;;
69619;Laerm;57653;51.434;5.984;2023-09-19T00:40:38;33.70;32.14;35.22;;
69619;Laerm;57653;51.434;5.984;2023-09-19T00:40:48;33.41;32.18;34.62;;
69619;Laerm;57653;51.434;5.984;2023-09-19T00:40:59;33.74;32.20;35.68;;
69619;Laerm;57653;51.434;5.984;2023-09-19T00:41:09;33.26;31.70;34.81;;
69619;Laerm;57653;51.434;5.984;2023-09-19T00:41:20;32.91;31.42;33.97;;
69619;Laerm;57653;51.434;5.984;2023-09-19T00:41:31;33.05;31.62;34.22;;
69619;Laerm;57653;51.434;5.984;2023-09-19T00:41:41;32.83;31.81;34.09;;
69619;Laerm;57653;51.434;5.984;2023-09-19T00:41:54;33.23;31.94;34.45;;
69619;Laerm;57653;51.434;5.984;2023-09-19T00:42:05;32.94;31.87;34.34;;
69619;Laerm;57653;51.434;5.984;2023-09-19T00:42:19;32.94;31.67;34.09;;
69619;Laerm;57653;51.434;5.984;2023-09-19T00:42:31;32.81;31.68;34.11;;
69619;Laerm;57653;51.434;5.984;2023-09-19T00:42:42;33.26;32.02;34.28;;
69619;Laerm;57653;51.434;5.984;2023-09-19T00:42:52;32.70;31.49;34.04;;
69619;Laerm;57653;51.434;5.984;2023-09-19T00:43:07;33.58;31.89;35.52;;
69619;Laerm;57653;51.434;5.984;2023-09-19T00:43:18;35.41;33.29;37.02;;
69619;Laerm;57653;51.434;5.984;2023-09-19T00:43:28;34.88;33.25;36.73;;
69619;Laerm;57653;51.434;5.984;2023-09-19T00:43:39;33.02;31.53;34.36;;
69619;Laerm;57653;51.434;5.984;2023-09-19T00:43:50;33.44;31.31;35.72;;
69619;Laerm;57653;51.434;5.984;2023-09-19T00:44:00;36.50;33.09;38.48;;
69619;Laerm;57653;51.434;5.984;2023-09-19T00:44:12;33.75;31.87;37.00;;
69619;Laerm;57653;51.434;5.984;2023-09-19T00:44:22;32.43;30.82;34.18;;
69619;Laerm;57653;51.434;5.984;2023-09-19T00:44:33;32.66;31.12;34.03;;
69619;Laerm;57653;51.434;5.984;2023-09-19T00:44:44;36.47;32.21;51.28;;
69619;Laerm;57653;51.434;5.984;2023-09-19T00:44:54;33.85;32.28;36.49;;
69619;Laerm;57653;51.434;5.984;2023-09-19T00:45:05;33.00;31.87;34.22;;
69619;Laerm;57653;51.434;5.984;2023-09-19T00:45:16;32.83;31.67;35.17;;
69619;Laerm;57653;51.434;5.984;2023-09-19T00:45:28;34.05;31.79;35.52;;
69619;Laerm;57653;51.434;5.984;2023-09-19T00:45:39;34.14;32.37;37.84;;
69619;Laerm;57653;51.434;5.984;2023-09-19T00:45:53;32.50;31.00;33.97;;
69619;Laerm;57653;51.434;5.984;2023-09-19T00:46:03;33.34;31.30;34.91;;
69619;Laerm;57653;51.434;5.984;2023-09-19T00:46:16;33.56;32.03;35.11;;
69619;Laerm;57653;51.434;5.984;2023-09-19T00:46:27;33.60;31.88;37.08;;
69619;Laerm;57653;51.434;5.984;2023-09-19T00:46:37;32.55;31.47;33.75;;
69619;Laerm;57653;51.434;5.984;2023-09-19T00:46:47;32.32;31.29;33.73;;
69619;Laerm;57653;51.434;5.984;2023-09-19T00:46:59;32.78;31.53;34.66;;
69619;Laerm;57653;51.434;5.984;2023-09-19T00:47:09;34.05;32.93;35.11;;
69619;Laerm;57653;51.434;5.984;2023-09-19T00:47:25;34.98;33.15;38.54;;
69619;Laerm;57653;51.434;5.984;2023-09-19T00:47:35;35.91;33.88;37.51;;
69619;Laerm;57653;51.434;5.984;2023-09-19T00:47:47;35.45;33.05;37.66;;
69619;Laerm;57653;51.434;5.984;2023-09-19T00:48:01;34.92;32.82;37.76;;
69619;Laerm;57653;51.434;5.984;2023-09-19T00:48:14;36.87;34.41;39.48;;
69619;Laerm;57653;51.434;5.984;2023-09-19T00:48:25;43.21;38.61;47.32;;
69619;Laerm;57653;51.434;5.984;2023-09-19T00:48:41;62.17;45.50;69.78;;
69619;Laerm;57653;51.434;5.984;2023-09-19T00:48:53;65.59;61.18;72.58;;
69619;Laerm;57653;51.434;5.984;2023-09-19T00:49:04;57.61;36.66;65.41;;
69619;Laerm;57653;51.434;5.984;2023-09-19T00:49:15;34.22;32.23;37.08;;
69619;Laerm;57653;51.434;5.984;2023-09-19T00:49:25;33.56;32.51;34.75;;
69619;Laerm;57653;51.434;5.984;2023-09-19T00:49:36;33.60;32.21;35.07;;
69619;Laerm;57653;51.434;5.984;2023-09-19T00:49:48;33.96;32.56;35.52;;
69619;Laerm;57653;51.434;5.984;2023-09-19T00:50:03;33.64;32.08;35.30;;
69619;Laerm;57653;51.434;5.984;2023-09-19T00:50:15;33.85;32.03;37.01;;
69619;Laerm;57653;51.434;5.984;2023-09-19T00:50:27;35.02;32.45;37.92;;
69619;Laerm;57653;51.434;5.984;2023-09-19T00:50:38;34.49;31.78;41.91;;
69619;Laerm;57653;51.434;5.984;2023-09-19T00:50:52;32.92;31.82;38.67;;
69619;Laerm;57653;51.434;5.984;2023-09-19T00:51:03;35.17;32.75;40.90;;
69619;Laerm;57653;51.434;5.984;2023-09-19T00:51:14;33.59;32.10;34.87;;
69619;Laerm;57653;51.434;5.984;2023-09-19T00:51:28;34.22;32.03;41.20;;
69619;Laerm;57653;51.434;5.984;2023-09-19T00:51:39;35.00;32.55;37.23;;
69619;Laerm;57653;51.434;5.984;2023-09-19T00:51:55;34.48;32.61;35.94;;
69619;Laerm;57653;51.434;5.984;2023-09-19T00:52:05;35.58;33.78;37.38;;
69619;Laerm;57653;51.434;5.984;2023-09-19T00:52:16;36.51;33.20;39.64;;
69619;Laerm;57653;51.434;5.984;2023-09-19T00:52:30;36.03;34.09;38.05;;
69619;Laerm;57653;51.434;5.984;2023-09-19T00:52:42;36.57;33.57;40.07;;
69619;Laerm;57653;51.434;5.984;2023-09-19T00:52:55;34.33;32.61;36.16;;
69619;Laerm;57653;51.434;5.984;2023-09-19T00:53:06;33.91;31.77;35.22;;
69619;Laerm;57653;51.434;5.984;2023-09-19T00:53:19;33.47;32.05;35.00;;
69619;Laerm;57653;51.434;5.984;2023-09-19T00:53:30;33.41;32.25;34.59;;
69619;Laerm;57653;51.434;5.984;2023-09-19T00:53:41;34.01;32.85;36.75;;
69619;Laerm;57653;51.434;5.984;2023-09-19T00:53:56;33.99;32.50;35.24;;
69619;Laerm;57653;51.434;5.984;2023-09-19T00:54:08;51.83;33.15;60.29;;
69619;Laerm;57653;51.434;5.984;2023-09-19T00:54:19;61.62;59.41;65.73;;
69619;Laerm;57653;51.434;5.984;2023-09-19T00:54:29;64.21;61.64;67.79;;
69619;Laerm;57653;51.434;5.984;2023-09-19T00:54:39;56.98;46.35;64.15;;
69619;Laerm;57653;51.434;5.984;2023-09-19T00:54:50;44.73;39.77;49.44;;
69619;Laerm;57653;51.434;5.984;2023-09-19T00:55:00;40.05;35.39;43.32;;
69619;Laerm;57653;51.434;5.984;2023-09-19T00:55:12;36.18;34.37;38.96;;
69619;Laerm;57653;51.434;5.984;2023-09-19T00:55:24;35.48;33.45;38.60;;
69619;Laerm;57653;51.434;5.984;2023-09-19T00:55:35;35.13;33.16;37.32;;
69619;Laerm;57653;51.434;5.984;2023-09-19T00:55:47;34.75;33.05;36.21;;
69619;Laerm;57653;51.434;5.984;2023-09-19T00:55:58;36.48;33.71;43.49;;
69619;Laerm;57653;51.434;5.984;2023-09-19T00:56:08;37.07;33.83;43.21;;
69619;Laerm;57653;51.434;5.984;2023-09-19T00:56:19;37.35;34.60;41.50;;
69619;Laerm;57653;51.434;5.984;2023-09-19T00:56:30;37.40;34.23;41.63;;
69619;Laerm;57653;51.434;5.984;2023-09-19T00:56:41;34.54;32.85;35.94;;
69619;Laerm;57653;51.434;5.984;2023-09-19T00:56:52;35.11;33.58;36.33;;
69619;Laerm;57653;51.434;5.984;2023-09-19T00:57:04;36.82;33.26;39.91;;
69619;Laerm;57653;51.434;5.984;2023-09-19T00:57:15;37.11;34.03;41.95;;
69619;Laerm;57653;51.434;5.984;2023-09-19T00:57:25;35.43;33.62;39.86;;
69619;Laerm;57653;51.434;5.984;2023-09-19T00:57:36;34.60;32.47;44.04;;
69619;Laerm;57653;51.434;5.984;2023-09-19T00:57:48;34.45;32.74;36.09;;
69619;Laerm;57653;51.434;5.984;2023-09-19T00:58:01;34.25;32.71;35.94;;
69619;Laerm;57653;51.434;5.984;2023-09-19T00:58:11;34.74;32.53;38.10;;
69619;Laerm;57653;51.434;5.984;2023-09-19T00:58:22;36.03;33.65;38.01;;
69619;Laerm;57653;51.434;5.984;2023-09-19T00:58:33;35.67;33.90;37.81;;
69619;Laerm;57653;51.434;5.984;2023-09-19T00:58:45;35.59;33.75;37.03;;
69619;Laerm;57653;51.434;5.984;2023-09-19T00:58:56;37.06;34.36;39.91;;
69619;Laerm;57653;51.434;5.984;2023-09-19T00:59:06;39.16;35.64;45.05;;
69619;Laerm;57653;51.434;5.984;2023-09-19T00:59:17;46.74;37.93;54.52;;
69619;Laerm;57653;51.434;5.984;2023-09-19T00:59:27;58.95;52.46;61.81;;
69619;Laerm;57653;51.434;5.984;2023-09-19T00:59:40;56.62;35.88;63.45;;
69619;Laerm;57653;51.434;5.984;2023-09-19T00:59:50;34.86;32.53;37.15;;
69619;Laerm;57653;51.434;5.984;2023-09-19T01:00:04;33.06;31.56;34.36;;
69619;Laerm;57653;51.434;5.984;2023-09-19T01:00:18;34.64;31.70;44.04;;
69619;Laerm;57653;51.434;5.984;2023-09-19T01:00:30;33.97;32.07;36.23;;
69619;Laerm;57653;51.434;5.984;2023-09-19T01:00:40;33.51;31.76;34.89;;
69619;Laerm;57653;51.434;5.984;2023-09-19T01:00:54;33.88;32.32;35.23;;
69619;Laerm;57653;51.434;5.984;2023-09-19T01:01:06;34.25;32.65;35.58;;
69619;Laerm;57653;51.434;5.984;2023-09-19T01:01:17;37.05;33.63;41.49;;
69619;Laerm;57653;51.434;5.984;2023-09-19T01:01:27;38.22;35.03;40.62;;
69619;Laerm;57653;51.434;5.984;2023-09-19T01:01:38;38.31;35.49;40.45;;
69619;Laerm;57653;51.434;5.984;2023-09-19T01:01:49;38.63;35.96;42.32;;
69619;Laerm;57653;51.434;5.984;2023-09-19T01:02:03;36.25;34.47;39.27;;
69619;Laerm;57653;51.434;5.984;2023-09-19T01:02:14;37.44;33.94;40.52;;
69619;Laerm;57653;51.434;5.984;2023-09-19T01:02:25;39.13;34.19;43.01;;
69619;Laerm;57653;51.434;5.984;2023-09-19T01:02:38;35.78;33.50;38.44;;
69619;Laerm;57653;51.434;5.984;2023-09-19T01:02:48;34.26;32.66;35.69;;
69619;Laerm;57653;51.434;5.984;2023-09-19T01:02:58;36.30;33.02;38.21;;
69619;Laerm;57653;51.434;5.984;2023-09-19T01:03:08;37.56;34.35;44.78;;
69619;Laerm;57653;51.434;5.984;2023-09-19T01:03:19;37.00;34.25;39.36;;
69619;Laerm;57653;51.434;5.984;2023-09-19T01:03:30;35.28;33.93;37.07;;
69619;Laerm;57653;51.434;5.984;2023-09-19T01:03:41;35.15;33.57;37.12;;
69619;Laerm;57653;51.434;5.984;2023-09-19T01:03:51;37.11;34.84;39.63;;